createdAt,value
2023-03-25T00:01:21.291Z,41.30
2023-03-25T00:03:54.244Z,27.17
2023-03-25T00:06:23.205Z,22.63
2023-03-25T00:08:52.003Z,22.92
2023-03-25T00:11:21.260Z,22.08
2023-03-25T00:13:50.671Z,23.15
2023-03-25T00:16:20.049Z,22.98
2023-03-25T00:18:52.275Z,23.10
2023-03-25T00:21:21.845Z,22.40
2023-03-25T00:23:50.689Z,21.13
2023-03-25T00:26:19.871Z,21.88
2023-03-25T00:28:48.656Z,23.65
2023-03-25T00:31:17.759Z,22.83
2023-03-25T00:33:46.652Z,22.88
2023-03-25T00:36:15.693Z,22.88
2023-03-25T00:38:46.560Z,25.30
2023-03-25T00:41:26.414Z,23.55
2023-03-25T00:43:59.945Z,22.45
2023-03-25T00:46:33.620Z,22.70
2023-03-25T00:49:03.080Z,22.02
2023-03-25T00:51:34.816Z,21.42
2023-03-25T00:54:23.146Z,22.05
2023-03-25T00:56:54.276Z,22.08
2023-03-25T00:59:23.575Z,21.80
2023-03-25T01:01:57.880Z,22.45
2023-03-25T01:04:31.324Z,21.45
2023-03-25T01:07:04.054Z,20.45
2023-03-25T01:09:37.755Z,22.23
2023-03-25T01:12:11.214Z,21.13
2023-03-25T01:14:47.076Z,22.58
2023-03-25T01:17:18.637Z,21.45
2023-03-25T01:19:55.451Z,20.83
2023-03-25T01:22:29.406Z,21.17
2023-03-25T01:25:02.804Z,20.50
2023-03-25T01:27:35.386Z,22.15
2023-03-25T01:30:10.058Z,20.40
2023-03-25T01:32:43.490Z,18.63
2023-03-25T01:35:17.642Z,18.35
2023-03-25T01:37:57.535Z,19.63
2023-03-25T01:40:32.468Z,20.35
2023-03-25T01:43:06.524Z,25.75
2023-03-25T01:45:40.835Z,42.30
2023-03-25T01:48:19.016Z,47.15
2023-03-25T01:51:02.970Z,63.40
2023-03-25T01:53:37.438Z,69.88
2023-03-25T01:56:12.126Z,57.42
2023-03-25T01:58:47.771Z,47.95
2023-03-25T02:01:25.730Z,44.90
2023-03-25T02:04:05.968Z,38.03
2023-03-25T02:06:59.819Z,34.15
2023-03-25T02:09:35.104Z,26.42
2023-03-25T02:12:12.303Z,24.35
2023-03-25T02:14:45.265Z,24.42
2023-03-25T02:17:27.731Z,22.42
2023-03-25T02:20:36.305Z,21.38
2023-03-25T02:23:30.940Z,21.40
2023-03-25T02:26:18.674Z,20.75
2023-03-25T02:28:55.257Z,28.85
2023-03-25T02:32:14.404Z,46.17
2023-03-25T02:35:04.683Z,44.50
2023-03-25T02:38:01.103Z,38.60
2023-03-25T02:40:50.422Z,40.95
2023-03-25T02:43:42.495Z,38.55
2023-03-25T02:46:16.876Z,39.23
2023-03-25T02:49:09.628Z,33.08
2023-03-25T02:52:04.532Z,33.17
2023-03-25T02:54:37.947Z,33.60
2023-03-25T02:57:09.311Z,31.30
2023-03-25T02:59:41.509Z,37.42
2023-03-25T03:02:12.450Z,39.22
2023-03-25T03:04:53.624Z,40.67
2023-03-25T03:07:33.255Z,38.65
2023-03-25T03:10:24.441Z,35.92
2023-03-25T03:12:58.830Z,39.45
2023-03-25T03:15:42.546Z,38.85
2023-03-25T03:18:43.174Z,42.80
2023-03-25T03:21:24.197Z,38.50
2023-03-25T03:24:09.013Z,36.95
2023-03-25T03:26:59.970Z,33.55
2023-03-25T03:29:47.657Z,38.33
2023-03-25T03:32:44.409Z,28.50
2023-03-25T03:35:20.214Z,18.48
2023-03-25T03:37:59.256Z,16.98
2023-03-25T03:40:31.549Z,14.73
2023-03-25T03:43:13.445Z,14.88
2023-03-25T03:45:47.518Z,15.02
2023-03-25T03:49:27.494Z,15.25
2023-03-25T03:52:08.115Z,16.75
2023-03-25T03:54:54.601Z,16.02
2023-03-25T03:57:33.631Z,15.25
2023-03-25T04:00:19.280Z,15.48
2023-03-25T04:03:10.090Z,15.98
2023-03-25T04:05:40.729Z,14.73
2023-03-25T04:08:22.294Z,17.08
2023-03-25T04:11:00.112Z,15.18
2023-03-25T04:13:37.611Z,13.25
2023-03-25T04:16:08.328Z,13.10
2023-03-25T04:18:37.586Z,14.27
2023-03-25T04:21:06.690Z,12.30
2023-03-25T04:23:35.815Z,11.88
2023-03-25T04:26:04.874Z,12.32
2023-03-25T04:28:33.932Z,10.20
2023-03-25T04:31:06.397Z,6.30
2023-03-25T04:33:36.899Z,6.20
2023-03-25T04:36:07.723Z,4.65
2023-03-25T04:38:38.623Z,4.63
2023-03-25T04:41:09.458Z,4.28
2023-03-25T04:43:40.188Z,4.55
2023-03-25T04:46:15.094Z,4.85
2023-03-25T04:48:46.118Z,4.78
2023-03-25T04:51:17.010Z,4.70
2023-03-25T04:53:45.943Z,4.95
2023-03-25T04:56:17.845Z,5.97
2023-03-25T04:58:47.675Z,6.85
2023-03-25T05:01:31.514Z,7.10
2023-03-25T05:04:06.513Z,6.32
2023-03-25T05:06:39.406Z,6.45
2023-03-25T05:09:12.434Z,6.30
2023-03-25T05:11:42.818Z,5.25
2023-03-25T05:14:13.003Z,5.78
2023-03-25T05:16:42.508Z,4.60
2023-03-25T05:19:11.533Z,2.78
2023-03-25T05:21:42.143Z,3.60
2023-03-25T05:24:13.033Z,3.88
2023-03-25T05:26:43.561Z,3.83
2023-03-25T05:29:15.924Z,3.67
2023-03-25T05:31:47.027Z,3.40
2023-03-25T05:34:17.967Z,4.05
2023-03-25T05:36:47.234Z,3.95
2023-03-25T05:39:16.210Z,3.80
2023-03-25T05:41:46.723Z,4.05
2023-03-25T05:44:15.812Z,3.83
2023-03-25T05:46:45.045Z,3.33
2023-03-25T05:49:14.216Z,3.53
2023-03-25T05:51:43.031Z,2.60
2023-03-25T05:54:12.251Z,2.67
2023-03-25T05:56:42.412Z,2.60
2023-03-25T05:59:11.414Z,3.08
2023-03-25T06:01:40.285Z,3.33
2023-03-25T06:04:10.993Z,2.88
2023-03-25T06:06:40.738Z,2.95
2023-03-25T06:09:09.815Z,3.58
2023-03-25T06:11:41.971Z,2.88
2023-03-25T06:14:11.336Z,2.80
2023-03-25T06:16:40.483Z,2.78
2023-03-25T06:19:10.527Z,2.72
2023-03-25T06:21:39.803Z,2.40
2023-03-25T06:24:09.303Z,2.85
2023-03-25T06:26:38.149Z,2.55
2023-03-25T06:29:07.112Z,2.80
2023-03-25T06:31:35.974Z,2.90
2023-03-25T06:34:05.146Z,3.78
2023-03-25T06:36:35.649Z,2.90
2023-03-25T06:39:06.351Z,3.50
2023-03-25T06:41:37.115Z,3.53
2023-03-25T06:44:26.446Z,3.60
2023-03-25T06:47:13.653Z,4.70
2023-03-25T06:49:47.694Z,3.85
2023-03-25T06:52:28.843Z,2.88
2023-03-25T06:54:58.059Z,3.22
2023-03-25T06:57:26.939Z,6.45
2023-03-25T06:59:55.893Z,3.05
2023-03-25T07:02:24.717Z,2.88
2023-03-25T07:04:53.734Z,2.70
2023-03-25T07:07:22.505Z,2.42
2023-03-25T07:09:56.991Z,2.80
2023-03-25T07:12:26.001Z,2.85
2023-03-25T07:14:59.404Z,2.88
2023-03-25T07:17:30.089Z,3.83
2023-03-25T07:20:00.009Z,3.08
2023-03-25T07:22:28.960Z,3.50
2023-03-25T07:24:59.413Z,3.17
2023-03-25T07:27:29.190Z,3.38
2023-03-25T07:30:07.972Z,4.20
2023-03-25T07:32:38.157Z,3.97
2023-03-25T07:35:10.261Z,3.80
2023-03-25T07:37:39.381Z,4.40
2023-03-25T07:40:08.850Z,4.45
2023-03-25T07:42:39.487Z,5.32
2023-03-25T07:45:18.503Z,4.28
2023-03-25T07:47:51.213Z,3.90
2023-03-25T07:50:24.425Z,6.10
2023-03-25T07:52:54.710Z,5.65
2023-03-25T07:55:23.552Z,5.82
2023-03-25T07:57:52.953Z,6.78
2023-03-25T08:00:22.179Z,6.40
2023-03-25T08:02:51.582Z,5.80
2023-03-25T08:05:30.012Z,6.95
2023-03-25T08:08:02.099Z,6.30
2023-03-25T08:10:31.407Z,7.53
2023-03-25T08:13:00.581Z,8.18
2023-03-25T08:16:07.857Z,7.90
2023-03-25T08:18:37.059Z,8.65
2023-03-25T08:21:09.694Z,7.70
2023-03-25T08:23:39.113Z,7.28
2023-03-25T08:26:08.060Z,7.65
2023-03-25T08:28:37.052Z,9.20
2023-03-25T08:31:09.870Z,8.73
2023-03-25T08:33:41.849Z,8.23
2023-03-25T08:36:15.026Z,8.23
2023-03-25T08:38:44.020Z,6.95
2023-03-25T08:41:12.796Z,8.20
2023-03-25T08:43:43.545Z,7.80
2023-03-25T08:46:14.345Z,8.93
2023-03-25T08:48:45.060Z,9.30
2023-03-25T08:51:13.995Z,9.18
2023-03-25T08:53:42.759Z,9.18
2023-03-25T08:56:12.400Z,8.93
2023-03-25T08:58:41.696Z,7.63
2023-03-25T09:01:10.698Z,9.40
2023-03-25T09:03:39.644Z,9.40
2023-03-25T09:06:10.071Z,11.60
2023-03-25T09:08:39.122Z,10.70
2023-03-25T09:11:08.259Z,9.05
2023-03-25T09:13:37.307Z,11.77
2023-03-25T09:16:06.736Z,10.23
2023-03-25T09:18:37.725Z,10.50
2023-03-25T09:21:07.155Z,10.18
2023-03-25T09:23:36.225Z,11.43
2023-03-25T09:26:06.214Z,12.48
2023-03-25T09:28:35.274Z,10.82
2023-03-25T09:31:04.004Z,11.05
2023-03-25T09:33:33.328Z,11.27
2023-03-25T09:36:03.144Z,12.23
2023-03-25T09:38:32.070Z,11.55
2023-03-25T09:41:06.560Z,12.68
2023-03-25T09:44:04.140Z,14.70
2023-03-25T09:46:34.048Z,13.18
2023-03-25T09:49:03.161Z,13.80
2023-03-25T09:51:37.624Z,13.70
2023-03-25T09:54:28.747Z,14.88
2023-03-25T09:57:03.664Z,14.55
2023-03-25T09:59:50.064Z,15.00
2023-03-25T10:02:49.689Z,14.10
2023-03-25T10:05:19.840Z,13.93
2023-03-25T10:08:14.454Z,12.45
2023-03-25T10:11:09.135Z,12.02
2023-03-25T10:13:38.111Z,12.88
2023-03-25T10:16:27.174Z,12.63
2023-03-25T10:19:52.127Z,13.18
2023-03-25T10:22:33.731Z,13.50
2023-03-25T10:25:06.567Z,14.55
2023-03-25T10:27:45.726Z,13.95
2023-03-25T10:30:16.789Z,13.20
2023-03-25T10:32:50.760Z,13.68
2023-03-25T10:35:44.335Z,14.52
2023-03-25T10:38:21.647Z,14.77
2023-03-25T10:40:54.223Z,15.57
2023-03-25T10:46:28.766Z,16.67
2023-03-25T10:48:57.867Z,16.20
2023-03-25T10:51:37.195Z,15.98
2023-03-25T10:54:06.493Z,15.68
2023-03-25T10:56:39.483Z,15.80
2023-03-25T10:59:26.815Z,17.40
2023-03-25T11:01:57.182Z,19.10
2023-03-25T11:04:37.929Z,17.15
2023-03-25T11:07:19.092Z,15.70
2023-03-25T11:09:48.361Z,15.82
2023-03-25T11:12:30.160Z,16.98
2023-03-25T11:15:07.554Z,15.80
2023-03-25T11:17:36.842Z,18.33
2023-03-25T11:20:18.571Z,17.50
2023-03-25T11:22:52.330Z,21.30
2023-03-25T11:25:32.513Z,16.75
2023-03-25T11:28:06.445Z,16.02
2023-03-25T11:30:35.398Z,17.15
2023-03-25T11:33:15.603Z,16.33
2023-03-25T11:35:47.618Z,15.05
2023-03-25T11:38:30.193Z,15.55
2023-03-25T11:43:37.724Z,16.92
2023-03-25T11:46:18.309Z,16.77
2023-03-25T11:48:48.238Z,14.20
2023-03-25T11:51:23.634Z,16.17
2023-03-25T11:54:06.608Z,16.95
2023-03-25T11:56:43.936Z,16.15
2023-03-25T11:59:39.053Z,15.70
2023-03-25T12:02:30.850Z,13.93
2023-03-25T12:05:13.368Z,14.90
2023-03-25T12:07:48.312Z,14.40
2023-03-25T12:10:49.301Z,15.23
2023-03-25T12:13:56.778Z,13.48
2023-03-25T12:16:45.292Z,13.65
2023-03-25T12:19:27.229Z,13.50
2023-03-25T12:22:26.971Z,15.35
2023-03-25T12:25:21.987Z,14.85
2023-03-25T12:28:09.757Z,15.45
2023-03-25T12:30:47.665Z,14.07
2023-03-25T12:33:48.988Z,14.50
2023-03-25T12:36:21.113Z,14.50
2023-03-25T12:39:39.441Z,16.13
2023-03-25T12:42:34.490Z,20.38
2023-03-25T12:45:33.522Z,22.15
2023-03-25T12:48:32.363Z,21.42
2023-03-25T12:51:01.628Z,21.17
2023-03-25T12:53:47.751Z,20.63
2023-03-25T12:56:33.656Z,21.70
2023-03-25T12:59:21.141Z,23.65
2023-03-25T13:02:05.175Z,26.63
2023-03-25T13:04:42.858Z,28.60
2023-03-25T13:07:17.722Z,28.70
2023-03-25T13:10:18.055Z,30.83
2023-03-25T13:12:59.709Z,35.47
2023-03-25T13:15:44.185Z,34.47
2023-03-25T13:19:06.545Z,36.70
2023-03-25T13:21:41.532Z,56.83
2023-03-25T13:24:19.481Z,39.58
2023-03-25T13:26:51.129Z,35.80
2023-03-25T13:29:46.883Z,37.25
2023-03-25T13:32:24.564Z,39.22
2023-03-25T13:35:08.207Z,42.03
2023-03-25T13:37:47.792Z,41.92
2023-03-25T13:40:28.776Z,42.30
2023-03-25T13:43:04.682Z,34.95
2023-03-25T13:45:57.798Z,43.17
2023-03-25T13:51:04.303Z,33.78
2023-03-25T13:53:48.910Z,34.83
2023-03-25T13:57:03.331Z,32.20
2023-03-25T13:59:57.594Z,31.85
2023-03-25T14:02:52.548Z,34.95
2023-03-25T14:06:22.986Z,33.63
2023-03-25T14:09:25.483Z,33.95
2023-03-25T14:12:10.354Z,32.25
2023-03-25T14:14:50.249Z,36.25
2023-03-25T14:19:56.485Z,37.53
2023-03-25T14:25:02.148Z,39.20
2023-03-25T14:27:36.546Z,39.75
2023-03-25T14:30:23.076Z,39.03
2023-03-25T14:32:55.346Z,41.55
2023-03-25T14:35:36.766Z,50.50
2023-03-25T14:38:08.828Z,50.97
2023-03-25T14:40:54.774Z,45.28
2023-03-25T14:43:33.996Z,36.42
2023-03-25T14:46:14.050Z,29.88
2023-03-25T14:49:06.771Z,22.40
2023-03-25T14:51:42.482Z,19.65
2023-03-25T14:54:36.874Z,17.80
2023-03-25T14:57:30.874Z,15.57
2023-03-25T15:00:18.294Z,13.35
2023-03-25T15:02:54.131Z,11.60
2023-03-25T15:05:28.596Z,10.10
2023-03-25T15:08:12.691Z,9.80
2023-03-25T15:11:04.273Z,9.27
2023-03-25T15:13:56.229Z,9.00
2023-03-25T15:16:49.196Z,8.97
2023-03-25T15:19:23.817Z,7.53
2023-03-25T15:21:59.288Z,8.85
2023-03-25T15:24:34.355Z,8.98
2023-03-25T15:27:32.362Z,9.07
2023-03-25T15:30:26.036Z,7.45
2023-03-25T15:33:31.890Z,8.77
2023-03-25T15:36:20.905Z,8.98
2023-03-25T15:39:22.103Z,9.95
2023-03-25T15:42:18.970Z,8.93
2023-03-25T15:45:02.855Z,9.05
2023-03-25T15:47:55.524Z,8.07
2023-03-25T15:50:54.221Z,7.95
2023-03-25T15:53:42.802Z,10.10
2023-03-25T15:56:15.673Z,10.10
2023-03-25T15:58:56.567Z,11.63
2023-03-25T16:01:32.223Z,8.35
2023-03-25T16:04:41.676Z,8.63
2023-03-25T16:07:16.290Z,8.60
2023-03-25T16:09:50.063Z,9.65
2023-03-25T16:12:25.083Z,10.25
2023-03-25T16:14:54.528Z,10.32
2023-03-25T16:17:32.115Z,9.30
2023-03-25T16:20:02.666Z,8.75
2023-03-25T16:22:34.400Z,7.13
2023-03-25T16:25:15.210Z,8.77
2023-03-25T16:27:53.148Z,8.27
2023-03-25T16:30:38.804Z,9.52
2023-03-25T16:33:14.658Z,9.00
2023-03-25T16:35:50.753Z,9.80
2023-03-25T16:38:26.300Z,10.85
2023-03-25T16:41:14.816Z,11.57
2023-03-25T16:43:44.379Z,10.05
2023-03-25T16:46:16.822Z,9.88
2023-03-25T16:51:33.090Z,10.65
2023-03-25T16:54:02.327Z,9.80
2023-03-25T16:56:37.624Z,9.70
2023-03-25T16:59:09.657Z,14.07
2023-03-25T17:01:43.369Z,14.50
2023-03-25T17:04:19.572Z,16.80
2023-03-25T17:06:55.656Z,14.15
2023-03-25T17:09:40.902Z,12.43
2023-03-25T17:12:21.502Z,9.93
2023-03-25T17:14:52.692Z,9.90
2023-03-25T17:17:24.453Z,11.13
2023-03-25T17:19:54.036Z,11.07
2023-03-25T17:22:29.820Z,10.00
2023-03-25T17:25:00.612Z,11.05
2023-03-25T17:27:37.072Z,12.18
2023-03-25T17:30:30.726Z,11.23
2023-03-25T17:33:11.592Z,15.40
2023-03-25T17:35:42.802Z,16.85
2023-03-25T17:38:29.969Z,24.42
2023-03-25T17:41:01.249Z,14.70
2023-03-25T17:43:33.534Z,12.27
2023-03-25T17:46:03.970Z,14.85
2023-03-25T17:48:33.016Z,17.27
2023-03-25T17:51:02.305Z,17.55
2023-03-25T17:53:31.845Z,22.73
2023-03-25T17:56:04.239Z,26.75
2023-03-25T18:01:02.377Z,23.80
2023-03-25T18:03:33.681Z,22.02
2023-03-25T18:06:02.599Z,22.75
2023-03-25T18:08:31.851Z,20.48
2023-03-25T18:11:01.020Z,20.60
2023-03-25T18:13:29.910Z,19.73
2023-03-25T18:15:59.243Z,19.98
2023-03-25T18:18:28.319Z,19.50
2023-03-25T18:20:57.326Z,15.55
2023-03-25T18:23:26.131Z,14.98
2023-03-25T18:25:55.241Z,15.43
2023-03-25T18:28:25.815Z,17.27
2023-03-25T18:30:56.348Z,19.65
2023-03-25T18:33:25.541Z,20.30
2023-03-25T18:35:54.512Z,20.73
2023-03-25T18:38:25.805Z,20.58
2023-03-25T18:40:56.873Z,21.50
2023-03-25T18:43:25.914Z,22.05
2023-03-25T18:45:55.078Z,22.02
2023-03-25T18:48:24.420Z,23.80
2023-03-25T18:50:57.714Z,24.95
2023-03-25T18:53:29.270Z,25.40
2023-03-25T18:56:01.755Z,24.67
2023-03-25T18:58:33.828Z,27.67
2023-03-25T19:01:05.025Z,26.48
2023-03-25T19:03:40.432Z,25.75
2023-03-25T19:06:16.075Z,27.15
2023-03-25T19:08:46.455Z,26.60
2023-03-25T19:11:21.614Z,29.70
2023-03-25T19:13:52.394Z,31.95
2023-03-25T19:16:21.978Z,33.10
2023-03-25T19:18:50.776Z,31.48
2023-03-25T19:21:20.740Z,29.55
2023-03-25T19:23:49.598Z,31.83
2023-03-25T19:26:18.587Z,34.33
2023-03-25T19:28:47.269Z,33.38
2023-03-25T19:31:17.387Z,34.63
2023-03-25T19:33:46.561Z,35.13
2023-03-25T19:36:17.634Z,35.65
2023-03-25T19:38:46.961Z,35.95
2023-03-25T19:41:17.276Z,32.88
2023-03-25T19:43:46.803Z,31.42
2023-03-25T19:46:15.824Z,31.83
2023-03-25T19:48:44.730Z,34.80
2023-03-25T19:51:13.653Z,34.95
2023-03-25T19:53:42.646Z,31.52
2023-03-25T19:56:14.792Z,30.02
2023-03-25T19:58:43.763Z,29.40
2023-03-25T20:01:13.095Z,26.83
2023-03-25T20:03:43.025Z,29.95
2023-03-25T20:06:11.983Z,33.65
2023-03-25T20:08:41.183Z,33.60
2023-03-25T20:11:12.827Z,31.95
2023-03-25T20:13:41.864Z,32.80
2023-03-25T20:16:10.899Z,37.90
2023-03-25T20:18:42.188Z,35.15
2023-03-25T20:21:12.694Z,36.85
2023-03-25T20:23:41.616Z,39.17
2023-03-25T20:26:10.443Z,47.00
2023-03-25T20:28:41.671Z,45.15
2023-03-25T20:31:22.655Z,45.92
2023-03-25T20:33:52.306Z,43.85
2023-03-25T20:36:22.497Z,43.78
2023-03-25T20:38:57.722Z,38.97
2023-03-25T20:41:27.747Z,31.05
2023-03-25T20:43:56.657Z,30.98
2023-03-25T20:46:29.173Z,30.45
2023-03-25T20:51:27.573Z,24.63
2023-03-25T20:53:57.868Z,25.17
2023-03-25T20:56:27.109Z,25.70
2023-03-25T20:58:55.932Z,23.27
2023-03-25T21:01:24.996Z,24.58
2023-03-25T21:03:54.326Z,25.80
2023-03-25T21:06:26.671Z,24.52
2023-03-25T21:08:59.558Z,24.40
2023-03-25T21:11:32.392Z,23.38
2023-03-25T21:14:01.364Z,24.23
2023-03-25T21:16:30.248Z,23.70
2023-03-25T21:19:02.702Z,26.55
2023-03-25T21:24:00.960Z,25.45
2023-03-25T21:26:29.840Z,25.58
2023-03-25T21:29:00.707Z,27.80
2023-03-25T21:31:30.303Z,27.67
2023-03-25T21:33:59.375Z,28.67
2023-03-25T21:36:30.717Z,31.27
2023-03-25T21:39:01.687Z,31.70
2023-03-25T21:41:31.507Z,30.40
2023-03-25T21:44:00.238Z,31.63
2023-03-25T21:46:29.409Z,27.98
2023-03-25T21:49:02.086Z,32.65
2023-03-25T21:51:33.226Z,29.50
2023-03-25T21:54:02.372Z,28.48
2023-03-25T21:56:35.595Z,27.92
2023-03-25T21:59:05.519Z,27.63
2023-03-25T22:01:34.483Z,25.33
2023-03-25T22:04:03.893Z,25.38
2023-03-25T22:06:35.981Z,25.23
2023-03-25T22:09:08.948Z,26.13
2023-03-25T22:11:41.491Z,26.40
2023-03-25T22:16:39.513Z,28.85
2023-03-25T22:19:09.553Z,39.33
2023-03-25T22:21:38.425Z,39.15
2023-03-25T22:24:09.257Z,38.92
2023-03-25T22:26:43.285Z,36.17
2023-03-25T22:29:12.411Z,37.50
2023-03-25T22:31:41.928Z,35.70
2023-03-25T22:34:16.133Z,39.40
2023-03-25T22:36:50.998Z,44.70
2023-03-25T22:39:21.938Z,47.17
2023-03-25T22:41:50.907Z,44.50
2023-03-25T22:44:22.255Z,42.72
2023-03-25T22:46:52.356Z,45.07
2023-03-25T22:49:21.547Z,47.80
2023-03-25T22:51:50.485Z,49.28
2023-03-25T22:54:19.296Z,53.40
2023-03-25T22:56:48.399Z,53.70
2023-03-25T22:59:17.249Z,54.60
2023-03-25T23:01:46.297Z,57.72
2023-03-25T23:04:15.264Z,72.68
2023-03-25T23:06:47.048Z,65.07
2023-03-25T23:09:42.223Z,64.50
2023-03-25T23:12:13.526Z,64.68
2023-03-25T23:14:48.583Z,61.22
2023-03-25T23:17:17.555Z,66.20
2023-03-25T23:19:46.998Z,70.32
2023-03-25T23:22:18.269Z,75.50
2023-03-25T23:24:47.161Z,85.57
2023-03-25T23:27:16.259Z,85.43
2023-03-25T23:29:46.031Z,84.22
2023-03-25T23:32:15.532Z,86.35
2023-03-25T23:34:44.469Z,84.38
2023-03-25T23:37:13.285Z,80.63
2023-03-25T23:39:42.993Z,80.25
2023-03-25T23:42:11.687Z,73.38
2023-03-25T23:44:40.612Z,67.20
2023-03-25T23:47:09.354Z,57.22
2023-03-25T23:49:39.275Z,61.13
2023-03-25T23:52:12.141Z,60.28
2023-03-25T23:54:41.591Z,61.00
2023-03-25T23:57:10.558Z,63.53
2023-03-25T23:59:39.615Z,68.82
